Time;durP1;ratioP1;P1;durP2;ratioP2;P2;SDS_P1;SDS_P2;PMS_P1;PMS_P2;Temp;Humidity;BMP_temperature;BMP_pressure;BME280_temperature;BME280_humidity;BME280_pressure;Samples;Min_cycle;Max_cycle;Signal;HPM_P1;HPM_P2
2022/07/23 00:01:30;;;;;;;41.63;22.33;;;;;;;17.25;93.49;101338.50;5134700;27;20476;-61
2022/07/23 00:03:57;;;;;;;45.10;20.55;;;;;;;17.42;92.66;101331.94;5134093;27;20061;-61
2022/07/23 00:06:24;;;;;;;46.42;21.48;;;;;;;17.48;92.86;101338.41;5134812;27;20424;-62
2022/07/23 00:08:51;;;;;;;43.05;20.75;;;;;;;17.43;92.68;101340.84;5134876;27;20497;-61
2022/07/23 00:11:18;;;;;;;44.22;21.63;;;;;;;17.44;92.87;101346.03;5134573;27;20434;-61
2022/07/23 00:13:46;;;;;;;38.28;19.63;;;;;;;17.53;92.25;101348.59;5134877;27;20496;-61
2022/07/23 00:16:12;;;;;;;40.45;20.75;;;;;;;17.57;93.64;101353.41;5134877;27;20070;-61
2022/07/23 00:18:39;;;;;;;44.10;21.00;;;;;;;17.58;95.39;101351.56;5134363;27;20054;-61
2022/07/23 00:21:06;;;;;;;40.08;20.00;;;;;;;17.59;94.71;101348.69;5134643;27;20047;-61
2022/07/23 00:23:33;;;;;;;39.30;18.80;;;;;;;17.58;94.06;101338.97;5134464;27;20043;-61
2022/07/23 00:26:00;;;;;;;34.58;18.25;;;;;;;17.56;92.91;101338.31;5134784;27;20080;-61
2022/07/23 00:28:26;;;;;;;38.75;19.05;;;;;;;17.57;93.22;101336.47;5134520;27;20047;-61
2022/07/23 00:30:53;;;;;;;43.90;19.52;;;;;;;17.58;92.39;101338.16;5134046;27;20126;-61
2022/07/23 00:33:20;;;;;;;36.33;19.27;;;;;;;17.55;92.65;101325.09;5134168;27;20571;-61
2022/07/23 00:35:47;;;;;;;37.45;18.50;;;;;;;17.48;93.61;101334.91;5134518;27;20055;-61
2022/07/23 00:38:13;;;;;;;43.20;20.58;;;;;;;17.44;94.20;101329.94;5134356;27;20484;-61
2022/07/23 00:40:40;;;;;;;38.17;19.98;;;;;;;17.36;93.81;101327.31;5134581;27;20047;-61
2022/07/23 00:43:07;;;;;;;39.88;21.02;;;;;;;17.42;93.80;101325.75;5134094;27;20054;-61
2022/07/23 00:45:34;;;;;;;43.67;20.73;;;;;;;17.43;93.17;101322.06;5134306;27;20046;-59
2022/07/23 00:48:01;;;;;;;39.45;21.10;;;;;;;17.44;93.29;101327.25;5133969;27;20049;-60
2022/07/23 00:50:28;;;;;;;37.17;19.98;;;;;;;17.46;92.84;101327.88;5134029;28;20377;-61
2022/07/23 00:52:56;;;;;;;38.33;20.90;;;;;;;17.46;93.92;101335.94;5134420;28;20075;-61
2022/07/23 00:55:23;;;;;;;36.55;20.10;;;;;;;17.39;93.58;101339.50;5134196;28;20541;-61
2022/07/23 00:57:50;;;;;;;42.53;21.42;;;;;;;17.37;93.70;101342.41;5134293;28;20046;-60
2022/07/23 01:00:17;;;;;;;44.90;21.40;;;;;;;17.18;94.97;101346.44;5133328;28;20035;-61
2022/07/23 01:02:44;;;;;;;38.58;20.85;;;;;;;17.05;96.22;101346.25;5133998;28;20481;-60
2022/07/23 01:05:11;;;;;;;40.33;21.02;;;;;;;17.20;96.42;101343.59;5134189;28;20112;-60
2022/07/23 01:07:38;;;;;;;43.83;21.25;;;;;;;17.21;95.32;101348.78;5134211;28;20096;-60
2022/07/23 01:10:30;;;;;;;40.38;20.30;;;;;;;17.19;95.51;101342.75;5115966;28;20067;-60
2022/07/23 01:12:53;;;;;;;41.75;21.27;;;;;;;17.21;95.33;101353.31;5133969;28;20039;-61
2022/07/23 01:15:21;;;;;;;44.38;21.88;;;;;;;17.04;95.72;101348.06;5134185;28;20095;-60
2022/07/23 01:17:48;;;;;;;46.30;22.33;;;;;;;16.87;96.74;101354.59;5134081;28;20049;-61
2022/07/23 01:20:15;;;;;;;40.40;21.40;;;;;;;16.98;96.49;101351.50;5134108;28;20066;-61
2022/07/23 01:22:42;;;;;;;42.05;21.70;;;;;;;16.99;96.12;101358.53;5133974;28;20067;-61
2022/07/23 01:25:09;;;;;;;42.47;20.70;;;;;;;17.02;96.26;101349.28;5133792;28;20050;-61
2022/07/23 01:27:38;;;;;;;40.47;22.00;;;;;;;17.09;96.24;101352.91;5133926;28;20561;-60
2022/07/23 01:30:05;;;;;;;39.33;21.40;;;;;;;17.11;96.15;101345.50;5133962;28;20048;-60
2022/07/23 01:32:32;;;;;;;40.65;21.42;;;;;;;17.13;95.66;101351.50;5133776;28;20047;-60
2022/07/23 01:34:59;;;;;;;42.85;21.55;;;;;;;17.12;95.25;101344.50;5133260;28;20151;-61
2022/07/23 01:37:26;;;;;;;41.20;21.77;;;;;;;17.16;95.68;101344.97;5133657;28;20047;-61
2022/07/23 01:39:53;;;;;;;38.28;20.67;;;;;;;17.12;95.62;101344.50;5133770;28;20043;-60
2022/07/23 01:42:20;;;;;;;42.72;20.98;;;;;;;17.11;96.01;101334.78;5133618;28;20039;-61
2022/07/23 01:44:46;;;;;;;40.55;21.30;;;;;;;17.12;96.24;101332.94;5120680;28;20373;-60
2022/07/23 01:47:18;;;;;;;38.63;20.85;;;;;;;17.14;95.70;101331.75;5113330;28;20051;-61
2022/07/23 01:49:46;;;;;;;43.35;21.58;;;;;;;16.89;96.77;101331.16;5112963;28;20109;-60
2022/07/23 01:52:27;;;;;;;41.10;21.88;;;;;;;16.99;96.27;101323.69;5113193;28;20039;-60
2022/07/23 01:54:54;;;;;;;43.00;21.05;;;;;;;16.98;95.73;101327.38;5122610;28;20492;-61
2022/07/23 01:57:20;;;;;;;40.03;21.05;;;;;;;16.87;96.52;101323.28;5135937;27;20047;-61
2022/07/23 01:59:47;;;;;;;40.97;21.77;;;;;;;16.74;97.20;101328.41;5136682;27;20493;-60
2022/07/23 02:02:14;;;;;;;39.00;21.05;;;;;;;16.67;97.32;101330.94;5137089;27;20432;-60
2022/07/23 02:04:40;;;;;;;39.88;21.25;;;;;;;16.57;97.36;101327.72;5136758;27;20054;-60
2022/07/23 02:07:07;;;;;;;44.28;21.55;;;;;;;16.61;96.90;101326.31;5137342;27;20050;-60
2022/07/23 02:09:34;;;;;;;48.92;20.75;;;;;;;16.75;95.98;101332.72;5137427;27;20488;-61
2022/07/23 02:12:01;;;;;;;44.22;22.17;;;;;;;16.83;95.50;101335.38;5137200;27;20091;-60
2022/07/23 02:14:28;;;;;;;40.70;20.70;;;;;;;16.86;94.65;101328.81;5137071;27;20369;-60
2022/07/23 02:16:56;;;;;;;41.08;20.15;;;;;;;16.87;94.48;101317.91;5137287;27;20396;-60
2022/07/23 02:19:22;;;;;;;37.38;20.85;;;;;;;16.86;94.77;101328.81;5137125;27;20047;-60
2022/07/23 02:21:49;;;;;;;41.35;22.15;;;;;;;16.83;94.99;101323.84;5136920;27;20067;-60
2022/07/23 02:24:18;;;;;;;42.45;23.25;;;;;;;16.81;96.25;101320.47;5136872;27;20051;-60
2022/07/23 02:26:45;;;;;;;48.35;22.20;;;;;;;16.81;96.24;101318.63;5136733;27;20072;-60
2022/07/23 02:29:12;;;;;;;43.58;21.40;;;;;;;16.84;96.16;101318.28;5136826;27;20088;-61
2022/07/23 02:31:39;;;;;;;38.58;21.38;;;;;;;16.87;95.62;101322.47;5136121;27;20067;-60
2022/07/23 02:34:07;;;;;;;42.88;21.67;;;;;;;16.86;95.86;101320.78;5136695;27;20058;-60
2022/07/23 02:36:33;;;;;;;38.75;20.83;;;;;;;16.89;95.66;101312.38;5136768;27;20043;-60
2022/07/23 02:39:03;;;;;;;43.85;21.40;;;;;;;16.92;96.52;101313.84;5136627;27;20065;-61
2022/07/23 02:41:32;;;;;;;40.53;21.02;;;;;;;16.91;96.60;101315.72;5136558;27;20047;-62
2022/07/23 02:43:59;;;;;;;38.97;21.35;;;;;;;16.89;97.18;101317.75;5136383;27;20067;-60
2022/07/23 02:46:26;;;;;;;42.47;20.67;;;;;;;16.92;97.32;101313.84;5136583;27;20047;-60
2022/07/23 02:48:53;;;;;;;47.75;21.10;;;;;;;16.92;96.85;101316.53;5135965;27;20082;-60
2022/07/23 02:51:20;;;;;;;38.53;21.45;;;;;;;16.95;96.42;101318.88;5136081;27;20039;-61
2022/07/23 02:53:52;;;;;;;43.83;20.73;;;;;;;16.86;97.41;101321.63;5136422;27;20044;-60
2022/07/23 02:56:20;;;;;;;45.17;21.02;;;;;;;16.72;97.70;101325.06;5136149;27;20039;-61
2022/07/23 02:58:46;;;;;;;47.67;20.67;;;;;;;16.66;97.95;101328.44;5136198;27;20047;-61
2022/07/23 03:01:13;;;;;;;37.70;20.15;;;;;;;16.72;97.25;101324.22;5136197;27;20078;-61
2022/07/23 03:03:40;;;;;;;40.80;20.75;;;;;;;16.73;97.39;101320.53;5135049;27;20035;-60
2022/07/23 03:06:07;;;;;;;40.33;20.48;;;;;;;16.76;96.75;101312.97;5136140;27;20495;-60
2022/07/23 03:08:34;;;;;;;42.60;20.15;;;;;;;16.77;97.02;101319.16;5136033;27;20050;-61
2022/07/23 03:11:01;;;;;;;37.92;19.52;;;;;;;16.76;96.61;101320.19;5135955;27;20047;-60
2022/07/23 03:13:29;;;;;;;41.30;20.95;;;;;;;16.76;96.38;101321.00;5135989;27;20068;-60
2022/07/23 03:15:55;;;;;;;37.90;19.83;;;;;;;16.63;97.57;101320.78;5135826;27;20447;-60
2022/07/23 03:18:23;;;;;;;47.25;20.85;;;;;;;16.64;97.30;101320.59;5135879;27;20062;-60
2022/07/23 03:20:50;;;;;;;37.42;20.00;;;;;;;16.57;97.35;101327.72;5135877;27;20147;-60
2022/07/23 03:23:17;;;;;;;46.15;21.13;;;;;;;16.61;96.80;101329.00;5117307;27;20096;-60
2022/07/23 03:25:44;;;;;;;40.10;20.52;;;;;;;16.63;96.61;101326.97;5135514;27;20039;-61
2022/07/23 03:28:12;;;;;;;43.88;20.63;;;;;;;16.63;96.40;101329.66;5135687;27;20495;-60
2022/07/23 03:30:38;;;;;;;41.13;20.65;;;;;;;16.62;96.09;101327.97;5135041;27;20054;-60
2022/07/23 03:33:05;;;;;;;38.05;20.55;;;;;;;16.65;96.07;101326.81;5135435;27;20043;-61
2022/07/23 03:35:32;;;;;;;39.15;19.90;;;;;;;16.62;96.18;101338.69;5135433;27;20492;-60
2022/07/23 03:38:19;;;;;;;40.60;19.52;;;;;;;16.55;96.11;101334.25;5135186;27;20066;-60
2022/07/23 03:40:45;;;;;;;38.20;20.48;;;;;;;16.57;96.61;101338.41;5136216;27;20047;-60
2022/07/23 03:43:12;;;;;;;39.35;19.75;;;;;;;16.54;97.25;101337.94;5135347;27;20040;-61
2022/07/23 03:45:39;;;;;;;38.28;20.27;;;;;;;16.48;97.11;101329.59;5114814;28;20492;-60
2022/07/23 03:48:06;;;;;;;38.70;19.70;;;;;;;16.40;97.05;101326.97;5114240;28;20390;-59
2022/07/23 03:50:34;;;;;;;35.75;19.33;;;;;;;16.38;96.71;101326.31;5114717;28;20400;-60
2022/07/23 03:53:01;;;;;;;43.95;20.75;;;;;;;16.23;97.49;101328.94;5114340;28;20447;-61
2022/07/23 03:55:27;;;;;;;44.80;20.20;;;;;;;16.27;97.91;101324.06;5122348;27;20065;-60
2022/07/23 03:57:55;;;;;;;37.97;20.38;;;;;;;16.30;97.90;101318.38;5135227;27;20050;-60
2022/07/23 04:00:22;;;;;;;38.85;20.35;;;;;;;16.35;97.49;101324.00;5134379;27;20047;-61
2022/07/23 04:02:50;;;;;;;37.05;19.77;;;;;;;16.36;97.45;101319.50;5134914;27;20043;-60
2022/07/23 04:05:17;;;;;;;41.00;20.92;;;;;;;16.36;97.56;101327.53;5134174;27;20408;-61
2022/07/23 04:07:47;;;;;;;44.05;21.60;;;;;;;16.45;97.10;101326.44;5134998;27;20049;-61
2022/07/23 04:10:15;;;;;;;42.03;20.58;;;;;;;16.44;97.15;101333.63;5135293;27;20145;-60
2022/07/23 04:12:41;;;;;;;40.13;20.67;;;;;;;16.45;96.76;101337.16;5134896;27;20096;-59
2022/07/23 04:15:08;;;;;;;41.55;20.02;;;;;;;16.45;96.43;101342.53;5134952;27;20047;-60
2022/07/23 04:17:35;;;;;;;40.38;20.13;;;;;;;16.40;96.46;101336.84;5134683;27;20039;-60
2022/07/23 04:20:03;;;;;;;44.92;21.65;;;;;;;16.28;98.05;101339.09;5134597;27;20047;-60
2022/07/23 04:22:36;;;;;;;44.05;20.95;;;;;;;16.33;97.66;101334.06;5134806;27;20088;-61
2022/07/23 04:25:03;;;;;;;42.35;19.92;;;;;;;16.41;97.34;101336.69;5134748;27;20434;-60
2022/07/23 04:27:33;;;;;;;41.85;19.40;;;;;;;16.46;97.33;101342.34;5134716;27;20043;-60
2022/07/23 04:29:59;;;;;;;42.75;21.30;;;;;;;16.41;97.66;101343.88;5134738;27;20043;-60
2022/07/23 04:32:26;;;;;;;46.40;21.52;;;;;;;16.35;97.19;101344.59;5134551;27;20365;-60
2022/07/23 04:34:53;;;;;;;49.65;20.65;;;;;;;16.25;97.79;101336.78;5133827;27;20480;-60
2022/07/23 04:37:20;;;;;;;47.80;21.80;;;;;;;16.31;98.76;101336.06;5134358;27;20035;-61
2022/07/23 04:39:47;;;;;;;41.00;21.92;;;;;;;16.27;99.00;101346.31;5134499;27;20047;-60
2022/07/23 04:42:13;;;;;;;41.13;20.92;;;;;;;16.40;98.67;101358.28;5134523;27;20043;-62
2022/07/23 04:44:40;;;;;;;39.33;20.25;;;;;;;16.40;98.65;101358.28;5134399;27;20128;-60
2022/07/23 04:47:07;;;;;;;38.72;20.38;;;;;;;16.37;98.63;101359.47;5134512;27;20051;-60
2022/07/23 04:49:34;;;;;;;37.75;19.40;;;;;;;16.33;99.03;101368.84;5133982;27;20412;-60
2022/07/23 04:52:01;;;;;;;42.10;19.67;;;;;;;16.35;99.35;101357.97;5134337;28;20051;-60
2022/07/23 04:54:28;;;;;;;37.35;19.60;;;;;;;16.33;99.45;101368.03;5134404;28;20505;-60
2022/07/23 04:56:55;;;;;;;38.53;19.38;;;;;;;16.41;99.60;101365.28;5134389;28;20043;-60
2022/07/23 04:59:22;;;;;;;34.08;18.42;;;;;;;16.41;99.58;101376.84;5134166;28;20078;-61
2022/07/23 05:01:54;;;;;;;36.92;18.95;;;;;;;16.47;98.88;101380.66;5134010;28;20043;-60
2022/07/23 05:04:21;;;;;;;42.58;19.63;;;;;;;16.49;99.51;101387.50;5133580;28;20035;-60
2022/07/23 05:06:48;;;;;;;33.53;19.25;;;;;;;16.41;99.49;101374.16;5134272;28;20055;-60
2022/07/23 05:09:15;;;;;;;37.72;18.88;;;;;;;16.38;99.54;101376.38;5134194;28;20045;-60
2022/07/23 05:11:41;;;;;;;34.20;18.52;;;;;;;16.41;99.99;101376.84;5134026;28;20046;-60
2022/07/23 05:14:08;;;;;;;36.00;19.10;;;;;;;16.54;100.00;101384.28;5134197;28;20043;-61
2022/07/23 05:16:35;;;;;;;36.53;19.58;;;;;;;16.55;100.00;101398.50;5134232;28;20493;-60
2022/07/23 05:19:07;;;;;;;37.20;19.58;;;;;;;16.65;99.19;101394.59;5134199;28;20100;-61
2022/07/23 05:21:36;;;;;;;36.20;18.15;;;;;;;16.48;99.50;101396.56;5134197;28;20073;-62
2022/07/23 05:24:03;;;;;;;40.83;18.80;;;;;;;16.54;98.89;101392.34;5134070;28;20055;-61
2022/07/23 05:26:30;;;;;;;34.78;18.80;;;;;;;16.57;98.53;101396.47;5134068;28;20043;-61
2022/07/23 05:28:56;;;;;;;35.67;18.95;;;;;;;16.50;98.34;101394.53;5134014;28;20051;-61
2022/07/23 05:31:24;;;;;;;35.88;19.65;;;;;;;16.58;98.18;101404.34;5134486;27;20061;-60
2022/07/23 05:33:51;;;;;;;36.55;19.75;;;;;;;16.53;98.94;101397.84;5137932;27;20049;-61
2022/07/23 05:36:18;;;;;;;35.38;19.10;;;;;;;16.57;98.26;101401.84;5137932;27;20492;-60
2022/07/23 05:38:51;;;;;;;37.78;20.98;;;;;;;16.59;99.49;101408.72;5137825;27;20054;-61
2022/07/23 05:41:19;;;;;;;39.78;20.23;;;;;;;16.64;99.21;101397.44;5137705;27;20496;-62
2022/07/23 05:43:46;;;;;;;42.35;20.77;;;;;;;16.72;99.96;101405.44;5133012;27;20111;-60
2022/07/23 05:46:14;;;;;;;39.78;22.02;;;;;;;16.75;99.41;101414.94;5117106;28;20407;-61
2022/07/23 05:48:43;;;;;;;38.97;20.30;;;;;;;16.76;97.11;101413.94;5116504;28;20060;-60
2022/07/23 05:51:23;;;;;;;39.63;20.50;;;;;;;16.72;97.28;101418.84;5116868;28;20051;-60
2022/07/23 05:53:51;;;;;;;41.03;21.42;;;;;;;16.83;96.94;101414.94;5116686;28;20505;-60
2022/07/23 05:56:20;;;;;;;41.85;22.23;;;;;;;16.79;97.74;101409.06;5124346;27;20138;-60
2022/07/23 05:58:48;;;;;;;41.70;21.40;;;;;;;16.81;98.39;101411.56;5136686;27;20051;-61
2022/07/23 06:01:16;;;;;;;41.42;20.80;;;;;;;16.92;97.60;101413.84;5136044;27;20118;-61
2022/07/23 06:03:50;;;;;;;38.55;20.65;;;;;;;16.97;97.51;101421.34;5136060;27;20064;-61
2022/07/23 06:06:16;;;;;;;43.38;22.05;;;;;;;16.86;96.37;101420.78;5136348;27;20387;-61
2022/07/23 06:08:43;;;;;;;46.38;21.85;;;;;;;16.94;96.98;101430.59;5136424;27;20134;-61
2022/07/23 06:11:11;;;;;;;48.95;22.75;;;;;;;17.06;96.05;101428.31;5136616;27;20070;-62
2022/07/23 06:13:37;;;;;;;43.17;22.23;;;;;;;17.02;95.33;101429.69;5135869;27;20387;-61
2022/07/23 06:16:04;;;;;;;44.03;22.42;;;;;;;17.01;96.14;101420.00;5136297;27;20103;-61
2022/07/23 06:18:31;;;;;;;42.97;22.65;;;;;;;16.95;95.27;101423.38;5136066;27;20122;-61
2022/07/23 06:20:57;;;;;;;47.75;23.15;;;;;;;17.00;96.43;101429.84;5136638;27;20062;-61
2022/07/23 06:23:27;;;;;;;47.22;24.35;;;;;;;16.98;94.27;101429.22;5136011;27;20039;-61
2022/07/23 06:25:53;;;;;;;48.42;24.17;;;;;;;16.95;94.32;101429.56;5136302;27;20054;-61
2022/07/23 06:28:20;;;;;;;49.40;24.30;;;;;;;17.11;95.01;101431.28;5136094;27;20112;-61
2022/07/23 06:30:47;;;;;;;46.67;24.67;;;;;;;16.98;94.05;101425.72;5135681;27;20505;-60
2022/07/23 06:33:14;;;;;;;50.88;24.63;;;;;;;17.11;94.69;101425.91;5136135;27;20039;-61
2022/07/23 06:35:40;;;;;;;49.53;25.33;;;;;;;17.07;94.83;101433.50;5136578;27;20126;-60
2022/07/23 06:38:07;;;;;;;56.13;27.08;;;;;;;17.06;94.67;101437.19;5135784;27;20104;-60
2022/07/23 06:40:34;;;;;;;54.88;27.98;;;;;;;17.12;94.82;101434.78;5136080;27;20400;-60
2022/07/23 06:43:01;;;;;;;60.85;27.20;;;;;;;17.02;92.59;101433.19;5135102;27;20031;-60
2022/07/23 06:45:28;;;;;;;60.03;27.77;;;;;;;17.12;93.54;101442.84;5135522;27;20051;-60
2022/07/23 06:47:55;;;;;;;59.63;28.17;;;;;;;17.13;93.62;101439.16;5135548;27;20047;-61
2022/07/23 06:50:22;;;;;;;56.15;26.63;;;;;;;17.06;93.12;101439.03;5135942;27;20044;-62
2022/07/23 06:52:48;;;;;;;54.83;27.05;;;;;;;17.19;94.59;101444.63;5135502;27;20484;-62
2022/07/23 06:55:15;;;;;;;60.38;27.52;;;;;;;17.12;92.80;101440.16;5135408;27;20122;-62
2022/07/23 06:57:44;;;;;;;58.20;27.45;;;;;;;17.16;93.54;101442.31;5135765;27;20047;-60
2022/07/23 07:00:12;;;;;;;59.95;30.02;;;;;;;17.24;94.31;101438.72;5135058;27;20046;-61
2022/07/23 07:02:38;;;;;;;56.85;26.98;;;;;;;17.22;92.20;101443.44;5135414;27;20050;-60
2022/07/23 07:05:05;;;;;;;51.00;25.38;;;;;;;17.26;93.23;101447.41;5134863;27;20091;-61
2022/07/23 07:07:34;;;;;;;58.50;27.08;;;;;;;17.27;93.23;101443.72;5135457;27;20067;-61
2022/07/23 07:10:02;;;;;;;52.67;25.35;;;;;;;17.25;91.60;101448.44;5131969;27;20047;-61
2022/07/23 07:12:28;;;;;;;48.05;23.42;;;;;;;17.29;90.94;101449.72;5135333;27;20115;-61
2022/07/23 07:14:56;;;;;;;45.28;22.73;;;;;;;17.41;91.37;101448.28;5134936;27;20057;-61
2022/07/23 07:17:23;;;;;;;47.72;21.38;;;;;;;17.43;90.78;101448.13;5135037;27;20491;-61
2022/07/23 07:19:50;;;;;;;46.90;22.90;;;;;;;17.53;91.30;101451.34;5134702;27;20115;-60
2022/07/23 07:22:16;;;;;;;40.47;20.70;;;;;;;17.56;89.29;101459.03;5135127;27;20044;-60
2022/07/23 07:24:44;;;;;;;47.90;21.98;;;;;;;17.58;89.65;101454.31;5134690;27;20063;-60
2022/07/23 07:27:11;;;;;;;42.55;22.67;;;;;;;17.65;89.85;101452.56;5134905;27;20058;-61
2022/07/23 07:29:37;;;;;;;48.35;23.20;;;;;;;17.74;90.77;101447.97;5134663;27;20039;-61
2022/07/23 07:32:05;;;;;;;40.88;22.63;;;;;;;17.65;89.86;101451.75;5134707;27;20051;-61
2022/07/23 07:34:32;;;;;;;39.97;21.70;;;;;;;17.72;89.31;101451.81;5134103;27;20043;-60
2022/07/23 07:36:58;;;;;;;48.20;22.40;;;;;;;17.73;87.07;101457.00;5116299;27;20099;-62
2022/07/23 07:39:26;;;;;;;47.72;21.98;;;;;;;17.79;89.05;101464.34;5134376;27;20438;-61
2022/07/23 07:41:52;;;;;;;44.50;24.40;;;;;;;17.86;87.61;101466.31;5134322;27;20051;-60
2022/07/23 07:44:19;;;;;;;50.53;24.90;;;;;;;17.86;86.67;101463.63;5134648;27;20051;-61
2022/07/23 07:46:45;;;;;;;45.10;23.73;;;;;;;18.07;86.02;101466.41;5134432;27;20051;-62
2022/07/23 07:49:13;;;;;;;53.17;26.00;;;;;;;18.09;87.71;101476.97;5134132;27;20047;-60
2022/07/23 07:51:39;;;;;;;48.53;25.17;;;;;;;18.21;88.03;101467.44;5134403;27;20054;-61
2022/07/23 07:54:06;;;;;;;51.05;23.70;;;;;;;18.36;85.47;101468.22;5133670;27;20503;-61
2022/07/23 07:56:33;;;;;;;45.08;23.60;;;;;;;18.50;85.15;101468.38;5132057;27;20405;-61
2022/07/23 07:59:00;;;;;;;46.72;23.30;;;;;;;18.57;84.24;101467.47;5134506;27;20039;-62
2022/07/23 08:01:27;;;;;;;42.13;21.92;;;;;;;18.55;82.49;101471.34;5134679;27;20043;-60
2022/07/23 08:03:54;;;;;;;42.33;21.42;;;;;;;18.59;82.79;101478.00;5133716;27;20069;-61
2022/07/23 08:06:21;;;;;;;35.00;20.25;;;;;;;18.49;81.34;101475.63;5134384;27;20043;-60
2022/07/23 08:08:48;;;;;;;41.10;21.88;;;;;;;18.63;80.54;101483.81;5134452;27;20480;-61
2022/07/23 08:11:15;;;;;;;49.40;27.75;;;;;;;18.56;79.23;101481.91;5134604;27;20047;-61
2022/07/23 08:13:44;;;;;;;55.03;30.27;;;;;;;18.66;78.68;101484.28;5134111;27;20058;-60
2022/07/23 08:16:11;;;;;;;58.42;31.40;;;;;;;18.61;79.36;101486.72;5134314;27;20517;-61
2022/07/23 08:18:37;;;;;;;52.75;32.60;;;;;;;18.59;77.24;101486.03;5133839;27;20090;-60
2022/07/23 08:21:05;;;;;;;49.65;34.80;;;;;;;18.61;77.35;101486.72;5134473;27;20043;-60
2022/07/23 08:23:32;;;;;;;60.08;37.10;;;;;;;18.75;78.52;101482.31;5134615;27;20043;-61
2022/07/23 08:26:00;;;;;;;64.60;36.90;;;;;;;18.80;79.09;101496.00;5134703;27;20047;-62
2022/07/23 08:28:27;;;;;;;50.65;32.83;;;;;;;19.01;76.72;101492.56;5116608;27;20040;-61
2022/07/23 08:30:54;;;;;;;60.50;33.97;;;;;;;19.04;76.26;101497.53;5134040;27;20039;-61
2022/07/23 08:33:21;;;;;;;53.72;35.38;;;;;;;18.99;75.50;101500.81;5116023;27;20043;-62
2022/07/23 08:35:50;;;;;;;62.38;33.90;;;;;;;19.20;77.18;101501.81;5134482;27;20035;-61
2022/07/23 08:38:20;;;;;;;58.45;36.25;;;;;;;19.17;75.04;101502.19;5134183;27;20495;-61
2022/07/23 08:40:49;;;;;;;63.80;35.90;;;;;;;19.20;75.95;101504.50;5134622;27;20047;-63
2022/07/23 08:43:20;;;;;;;55.58;32.35;;;;;;;19.24;76.72;101505.78;5132476;27;20381;-62
2022/07/23 08:45:49;;;;;;;52.15;27.33;;;;;;;19.24;72.71;101508.47;5134266;27;20045;-62
2022/07/23 08:48:18;;;;;;;41.65;22.45;;;;;;;19.32;71.82;101508.34;5130778;27;20063;-62
2022/07/23 08:50:50;;;;;;;38.47;21.38;;;;;;;19.47;73.32;101508.28;5134280;27;20058;-61
2022/07/23 08:53:18;;;;;;;40.15;21.92;;;;;;;19.57;71.51;101510.63;5133985;28;20043;-61
2022/07/23 08:55:47;;;;;;;37.17;21.15;;;;;;;19.63;71.42;101506.31;5134003;28;20433;-60
2022/07/23 08:58:15;;;;;;;37.53;21.15;;;;;;;19.63;70.33;101511.69;5134114;28;20043;-61
2022/07/23 09:00:42;;;;;;;36.17;20.27;;;;;;;19.77;69.08;101505.41;5133938;28;20468;-64
2022/07/23 09:03:28;;;;;;;33.55;18.95;;;;;;;19.82;69.23;101510.22;5134133;28;20054;-62
2022/07/23 09:05:57;;;;;;;32.55;18.70;;;;;;;19.93;69.74;101518.56;5136250;27;20118;-61
2022/07/23 09:08:33;;;;;;;35.13;19.20;;;;;;;20.05;68.63;101507.28;5138396;27;20445;-62
2022/07/23 09:11:02;;;;;;;31.42;16.63;;;;;;;20.13;67.41;101504.41;5137968;27;20043;-62
2022/07/23 09:16:13;;;;;;;28.45;14.57;;;;;;;20.07;65.98;101513.28;5110848;27;20381;-60
2022/07/23 09:18:47;;;;;;;27.40;14.00;;;;;;;20.16;64.63;101505.88;5111362;28;20050;-60
2022/07/23 09:21:18;;;;;;;30.02;14.50;;;;;;;20.01;64.32;101506.84;5111121;28;20043;-60
2022/07/23 09:23:56;;;;;;;25.83;13.48;;;;;;;20.27;64.73;101508.00;5111138;28;20048;-62
2022/07/23 09:26:30;;;;;;;24.85;13.90;;;;;;;20.32;63.56;101508.25;5110934;28;20040;-62
2022/07/23 09:29:22;;;;;;;26.10;11.98;;;;;;;20.62;61.42;101508.78;5110968;28;20044;-62
2022/07/23 09:31:56;;;;;;;26.92;12.43;;;;;;;20.56;62.68;101504.19;5109905;28;20451;-61
2022/07/23 09:34:27;;;;;;;23.85;11.73;;;;;;;20.62;63.49;101506.09;5111097;28;20050;-61
2022/07/23 09:37:07;;;;;;;21.42;12.35;;;;;;;20.71;62.09;101517.53;5110702;28;20044;-62
2022/07/23 09:39:34;;;;;;;22.77;12.88;;;;;;;20.70;61.35;101516.72;5110914;28;20048;-61
2022/07/23 09:42:21;;;;;;;22.98;12.52;;;;;;;20.73;60.20;101518.16;5110611;28;20052;-61
2022/07/23 09:44:49;;;;;;;29.58;12.13;;;;;;;20.90;60.38;101527.56;5110810;28;20089;-61
2022/07/23 09:47:17;;;;;;;23.08;11.63;;;;;;;21.23;59.61;101517.88;5110465;28;20036;-62
2022/07/23 09:50:08;;;;;;;19.40;9.95;;;;;;;21.41;59.41;101522.63;5110625;28;20101;-63
2022/07/23 09:52:48;;;;;;;22.05;10.25;;;;;;;21.59;58.74;101517.50;5110691;28;20052;-62
2022/07/23 09:55:16;;;;;;;21.30;8.90;;;;;;;21.66;58.52;101525.56;5109165;28;20398;-62
2022/07/23 09:57:45;;;;;;;17.25;9.63;;;;;;;21.72;57.22;101529.31;5108282;28;20040;-61
2022/07/23 10:00:13;;;;;;;17.05;9.23;;;;;;;21.70;57.66;101523.28;5110280;28;20054;-61
2022/07/23 10:02:40;;;;;;;22.10;9.77;;;;;;;21.72;55.04;101519.34;5109690;28;20055;-61
2022/07/23 10:05:28;;;;;;;16.63;8.82;;;;;;;22.13;56.49;101515.53;5108324;28;20040;-61
2022/07/23 10:08:18;;;;;;;17.95;7.47;;;;;;;22.34;54.58;101517.16;5109791;28;20052;-61
2022/07/23 10:11:06;;;;;;;19.15;9.55;;;;;;;22.30;53.18;101515.91;5110088;28;20036;-62
2022/07/23 10:14:03;;;;;;;16.25;8.07;;;;;;;22.61;54.43;101514.34;5110168;28;20450;-61
2022/07/23 10:16:44;;;;;;;18.35;8.48;;;;;;;22.74;52.04;101508.88;5110202;28;20040;-62
2022/07/23 10:19:10;;;;;;;16.80;8.35;;;;;;;22.84;50.73;101512.97;5109934;28;20044;-63
2022/07/23 10:21:43;;;;;;;17.00;8.20;;;;;;;22.98;51.14;101503.75;5109969;28;20071;-63
2022/07/23 10:24:24;;;;;;;16.15;8.45;;;;;;;22.83;51.07;101504.03;5109798;28;20066;-62
2022/07/23 10:27:04;;;;;;;14.73;7.97;;;;;;;23.14;50.75;101505.09;5100054;28;20056;-62
2022/07/23 10:29:51;;;;;;;18.35;7.80;;;;;;;23.47;50.85;101499.44;5096055;28;20398;-62
2022/07/23 10:35:42;;;;;;;15.60;7.25;;;;;;;23.65;50.91;101500.50;5109036;27;20405;-61
2022/07/23 10:38:18;;;;;;;17.02;8.15;;;;;;;23.65;50.63;101498.66;5107315;28;20046;-63
2022/07/23 10:41:10;;;;;;;17.60;7.25;;;;;;;23.57;50.24;101501.63;5131738;27;20051;-61
2022/07/23 10:43:36;;;;;;;;;;;;;;;23.74;47.53;101496.50;5131951;27;20046;-62
2022/07/23 10:46:53;;;;;;;16.92;6.97;;;;;;;23.85;48.36;101498.50;5131227;27;19924;-61
2022/07/23 10:49:31;;;;;;;20.65;6.35;;;;;;;23.92;48.46;101491.13;5131038;27;20078;-62
2022/07/23 10:52:17;;;;;;;14.25;5.40;;;;;;;23.99;47.59;101495.63;5131220;27;20066;-61
2022/07/23 10:57:25;;;;;;;13.88;6.07;;;;;;;24.29;45.77;101495.72;5111231;27;20380;-61
2022/07/23 11:00:12;;;;;;;13.95;5.65;;;;;;;24.08;45.17;101491.56;5111458;28;20051;-62
2022/07/23 11:02:42;;;;;;;16.98;5.97;;;;;;;24.09;43.31;101494.06;5111154;28;20051;-62
2022/07/23 11:05:10;;;;;;;16.30;6.00;;;;;;;24.17;45.87;101489.38;5110535;28;20055;-62
2022/07/23 11:08:08;;;;;;;15.68;6.40;;;;;;;24.00;44.08;101492.69;5111080;28;20039;-62
2022/07/23 11:10:38;;;;;;;12.90;6.05;;;;;;;24.39;43.12;101492.44;5110875;28;20047;-62
2022/07/23 11:16:05;;;;;;;14.67;6.43;;;;;;;24.76;44.49;101498.66;5109782;27;20732;-62
2022/07/23 11:29:31;;;;;;;16.98;7.45;;;;;;;24.76;44.56;101495.97;5119553;27;20349;-60
2022/07/23 11:32:18;;;;;;;14.55;6.88;;;;;;;24.78;43.43;101503.88;5116217;28;20038;-62
2022/07/23 11:34:47;;;;;;;16.13;7.35;;;;;;;24.49;44.60;101507.13;5098951;28;20035;-61
2022/07/23 11:37:36;;;;;;;22.40;7.00;;;;;;;24.71;44.14;101496.63;5126431;27;20489;-61
2022/07/23 11:40:08;;;;;;;17.50;7.53;;;;;;;24.50;44.21;101500.66;5116329;27;20054;-63
2022/07/23 11:42:38;;;;;;;23.80;8.25;;;;;;;24.21;45.54;101498.72;5112274;28;20489;-61